Time;durP1;ratioP1;P1;durP2;ratioP2;P2;SDS_P1;SDS_P2;PMS_P1;PMS_P2;Temp;Humidity;BMP_temperature;BMP_pressure;BME280_temperature;BME280_humidity;BME280_pressure;Samples;Min_cycle;Max_cycle;Signal;HPM_P1;HPM_P2
2023/01/18 00:00:51;;;;;;;8.60;5.63;;;;;;;0.55;100.00;96367.75;5113760;28;20202;-79
2023/01/18 00:03:19;;;;;;;7.63;5.37;;;;;;;0.64;100.00;96368.06;5110075;28;20199;-79
2023/01/18 00:05:47;;;;;;;8.87;5.23;;;;;;;0.63;100.00;96375.03;5076412;28;20233;-79
2023/01/18 00:08:22;;;;;;;8.87;5.73;;;;;;;0.76;100.00;96365.44;5113057;28;20210;-80
2023/01/18 00:10:50;;;;;;;8.00;5.30;;;;;;;0.68;100.00;96370.38;5113484;27;20202;-80
2023/01/18 00:13:19;;;;;;;9.57;5.30;;;;;;;0.67;100.00;96366.06;5112145;28;20619;-79
2023/01/18 00:15:50;;;;;;;9.20;5.40;;;;;;;0.53;100.00;96361.84;5095516;28;20254;-79
2023/01/18 00:18:19;;;;;;;8.07;5.43;;;;;;;0.59;100.00;96362.38;5108428;28;20222;-79
2023/01/18 00:20:47;;;;;;;8.73;5.53;;;;;;;0.59;100.00;96372.78;5107879;28;20206;-80
2023/01/18 00:23:16;;;;;;;11.07;5.60;;;;;;;0.55;100.00;96370.38;5072047;28;20197;-79
2023/01/18 00:25:46;;;;;;;9.93;5.43;;;;;;;0.60;100.00;96375.28;5113253;27;20216;-79
2023/01/18 00:28:21;;;;;;;8.13;5.60;;;;;;;0.63;100.00;96369.84;5111360;28;20650;-80
2023/01/18 00:30:50;;;;;;;9.37;5.53;;;;;;;0.70;100.00;96362.44;5110763;28;20268;-79
2023/01/18 00:33:18;;;;;;;9.83;5.97;;;;;;;0.61;100.00;96370.91;5113217;28;20191;-79
2023/01/18 00:35:55;;;;;;;8.60;5.27;;;;;;;0.60;100.00;96371.84;5108415;28;20331;-79
2023/01/18 00:38:24;;;;;;;11.10;5.00;;;;;;;0.60;100.00;96361.41;5112040;28;20264;-79
2023/01/18 00:40:54;;;;;;;9.70;5.80;;;;;;;0.63;100.00;96364.63;5113388;28;20214;-78
2023/01/18 00:43:40;;;;;;;9.70;5.80;;;;;;;0.61;100.00;96370.91;5103739;28;20195;-79
2023/01/18 00:46:10;;;;;;;9.10;5.37;;;;;;;0.64;100.00;96368.91;5027608;28;20275;-80
2023/01/18 00:48:39;;;;;;;7.17;5.17;;;;;;;0.51;100.00;96371.53;5028339;28;20334;-80
2023/01/18 00:51:09;;;;;;;9.73;5.43;;;;;;;0.49;100.00;96368.19;5027244;28;20193;-80
2023/01/18 00:53:38;;;;;;;8.50;5.37;;;;;;;0.52;100.00;96372.34;5025958;28;20374;-80
2023/01/18 00:56:12;;;;;;;7.90;5.20;;;;;;;0.60;100.00;96374.44;5029681;28;20245;-80
2023/01/18 00:58:40;;;;;;;8.20;4.97;;;;;;;0.46;100.00;96373.59;5030479;28;20217;-80
2023/01/18 01:01:10;;;;;;;9.00;5.50;;;;;;;0.34;100.00;96377.03;5027898;28;20243;-79
2023/01/18 01:06:45;;;;;;;8.83;5.63;;;;;;;-0.08;100.00;96383.38;5092398;28;20198;-79
2023/01/18 01:09:17;;;;;;;9.03;5.13;;;;;;;0.04;100.00;96379.13;5106675;28;20294;-79
2023/01/18 01:28:30;;;;;;;6.93;4.90;;;;;;;0.09;100.00;96405.63;5112630;28;20206;-79
2023/01/18 01:30:59;;;;;;;8.83;4.80;;;;;;;-0.09;100.00;96402.50;5109195;28;20653;-79
2023/01/18 01:33:28;;;;;;;8.27;4.63;;;;;;;-0.02;100.00;96406.34;5111059;28;20276;-79
2023/01/18 01:35:58;;;;;;;7.90;4.77;;;;;;;-0.16;100.00;96407.28;5109976;28;20264;-79
2023/01/18 01:38:26;;;;;;;8.50;4.70;;;;;;;-0.12;100.00;96407.91;5110955;28;20248;-79
2023/01/18 01:40:59;;;;;;;7.27;4.73;;;;;;;-0.04;100.00;96409.06;5109989;28;20187;-79
2023/01/18 01:43:53;;;;;;;11.30;4.63;;;;;;;-0.03;100.00;96415.94;5104268;28;20195;-80
2023/01/18 01:46:32;;;;;;;7.57;4.93;;;;;;;-0.18;100.00;96413.53;5109212;28;20210;-79
2023/01/18 01:49:07;;;;;;;6.67;4.43;;;;;;;-0.11;100.00;96415.59;5107808;28;20191;-79
2023/01/18 01:51:42;;;;;;;7.20;4.90;;;;;;;-0.15;100.00;96424.53;5112511;28;20225;-79
2023/01/18 01:54:17;;;;;;;11.13;5.30;;;;;;;-0.13;100.00;96421.84;5072015;28;20216;-79
2023/01/18 01:56:48;;;;;;;6.83;5.07;;;;;;;-0.30;100.00;96421.16;5110555;28;20222;-79
2023/01/18 01:59:18;;;;;;;9.33;5.33;;;;;;;-0.21;100.00;96424.09;5108760;28;20272;-80
2023/01/18 02:01:48;;;;;;;9.83;6.03;;;;;;;-0.26;100.00;96426.19;5114362;28;20199;-79
2023/01/18 02:04:17;;;;;;;11.60;5.57;;;;;;;-0.20;100.00;96429.19;5113512;28;20300;-80
2023/01/18 02:06:45;;;;;;;9.60;5.10;;;;;;;-0.28;100.00;96433.25;5113257;28;20335;-80
2023/01/18 02:09:15;;;;;;;8.40;4.70;;;;;;;-0.24;100.00;96434.72;5112933;28;20190;-80
2023/01/18 02:11:44;;;;;;;8.83;5.13;;;;;;;-0.26;100.00;96434.81;5107650;28;20199;-80
2023/01/18 02:14:16;;;;;;;9.87;4.80;;;;;;;-0.15;100.00;96432.34;5109705;28;20202;-80
2023/01/18 02:17:00;;;;;;;8.57;4.83;;;;;;;-0.23;100.00;96431.16;5076219;28;20669;-80
2023/01/18 02:20:00;;;;;;;11.23;5.60;;;;;;;-0.28;100.00;96435.84;5115266;28;20203;-79
2023/01/18 02:22:51;;;;;;;6.90;4.53;;;;;;;-0.24;100.00;96438.13;5114655;28;20206;-80
2023/01/18 02:25:46;;;;;;;9.40;5.10;;;;;;;-0.24;100.00;96442.50;5110533;28;20187;-80
2023/01/18 02:28:18;;;;;;;8.73;4.83;;;;;;;-0.26;100.00;96450.41;5077679;28;20205;-79
2023/01/18 02:30:52;;;;;;;9.13;5.03;;;;;;;-0.34;100.00;96435.31;5023807;28;20251;-80
2023/01/18 02:33:33;;;;;;;9.37;5.40;;;;;;;-0.34;100.00;96447.47;4988113;28;20196;-80
2023/01/18 02:36:05;;;;;;;8.03;5.00;;;;;;;-0.28;100.00;96449.69;5012419;28;20209;-80
2023/01/18 02:38:39;;;;;;;9.80;4.73;;;;;;;-0.26;100.00;96445.22;5012542;28;20201;-81
2023/01/18 02:41:14;;;;;;;6.87;4.70;;;;;;;-0.30;100.00;96451.53;4977668;28;20217;-80
2023/01/18 02:46:41;;;;;;;6.27;4.43;;;;;;;-0.28;100.00;96460.09;4987940;28;20248;-80
2023/01/18 02:49:11;;;;;;;7.23;4.90;;;;;;;-0.36;100.00;96457.13;5068408;28;20202;-80
2023/01/18 02:51:40;;;;;;;12.03;5.17;;;;;;;-0.36;100.00;96465.78;5110678;28;20195;-80
2023/01/18 02:54:10;;;;;;;8.90;4.70;;;;;;;-0.41;100.00;96475.63;5112081;28;20190;-80
2023/01/18 02:56:42;;;;;;;7.93;4.67;;;;;;;-0.44;100.00;96468.00;5106666;28;20218;-80
2023/01/18 02:59:18;;;;;;;7.53;4.20;;;;;;;-0.26;100.00;96465.19;5107273;28;20241;-79
2023/01/18 03:01:51;;;;;;;5.80;4.60;;;;;;;-0.17;100.00;96472.41;5109392;28;20194;-79
2023/01/18 03:04:29;;;;;;;8.77;4.83;;;;;;;-0.11;100.00;96472.81;5106374;28;20219;-79
2023/01/18 03:07:03;;;;;;;8.67;4.53;;;;;;;-0.08;100.00;96475.25;5077868;28;20201;-80
2023/01/18 03:09:32;;;;;;;6.87;4.27;;;;;;;-0.06;100.00;96478.56;5113297;28;20191;-79
2023/01/18 03:12:07;;;;;;;6.67;4.20;;;;;;;-0.05;100.00;96476.78;5117626;27;20195;-81
2023/01/18 03:14:49;;;;;;;8.33;3.60;;;;;;;-0.18;100.00;96487.16;5109016;28;20199;-80
2023/01/18 03:17:21;;;;;;;7.10;3.30;;;;;;;-0.03;100.00;96480.13;5109808;28;20229;-80
2023/01/18 03:20:07;;;;;;;5.37;3.07;;;;;;;-0.25;100.00;96490.25;5109160;28;20187;-81
2023/01/18 03:25:30;;;;;;;6.20;3.07;;;;;;;-0.09;100.00;96502.19;5086407;27;20190;-79
2023/01/18 03:33:46;;;;;;;10.70;3.60;;;;;;;-0.31;100.00;96499.25;5098596;27;20194;-80
2023/01/18 03:36:22;;;;;;;6.87;3.53;;;;;;;-0.35;100.00;96510.81;5077501;27;20235;-80
2023/01/18 03:38:57;;;;;;;6.43;4.07;;;;;;;-0.36;100.00;96511.72;5126533;27;20336;-80
2023/01/18 03:41:29;;;;;;;9.30;3.50;;;;;;;-0.21;100.00;96508.16;5079411;28;20247;-79
2023/01/18 03:44:02;;;;;;;7.13;4.00;;;;;;;-0.37;100.00;96513.50;5106807;28;20252;-79
2023/01/18 03:46:33;;;;;;;6.67;3.23;;;;;;;-0.26;100.00;96512.81;5109861;28;20247;-80
2023/01/18 03:49:02;;;;;;;6.37;3.50;;;;;;;-0.22;100.00;96516.88;5048173;28;20200;-80
2023/01/18 03:51:46;;;;;;;10.30;3.90;;;;;;;-0.26;100.00;96514.59;5065761;28;20318;-80
2023/01/18 03:54:21;;;;;;;9.07;3.60;;;;;;;-0.38;100.00;96518.81;5068874;28;20204;-79
2023/01/18 03:56:54;;;;;;;10.93;4.07;;;;;;;-0.39;100.00;96522.31;5065983;28;20184;-80
2023/01/18 03:59:23;;;;;;;5.47;3.43;;;;;;;-0.47;100.00;96530.59;5065214;28;20247;-80
2023/01/18 04:01:53;;;;;;;9.10;3.77;;;;;;;-0.44;100.00;96530.41;5071712;28;20226;-80
2023/01/18 04:04:23;;;;;;;10.60;3.50;;;;;;;-0.39;100.00;96535.31;5067888;28;20193;-80
2023/01/18 04:06:51;;;;;;;5.90;3.50;;;;;;;-0.28;100.00;96534.66;5072264;28;20203;-80
2023/01/18 04:09:20;;;;;;;4.20;3.47;;;;;;;-0.35;100.00;96529.00;5103912;28;20194;-80
2023/01/18 04:11:48;;;;;;;5.80;2.80;;;;;;;-0.33;100.00;96535.75;5113876;27;20206;-79
2023/01/18 04:14:18;;;;;;;7.93;3.33;;;;;;;-0.28;100.00;96537.25;5113696;28;20194;-80
2023/01/18 04:16:47;;;;;;;7.00;3.57;;;;;;;-0.47;100.00;96542.78;5109403;28;20195;-80
2023/01/18 04:19:17;;;;;;;4.80;3.17;;;;;;;-0.31;100.00;96548.66;5108684;28;20195;-79
2023/01/18 04:21:46;;;;;;;7.40;3.50;;;;;;;-0.37;100.00;96549.06;5100196;28;20207;-80
2023/01/18 04:24:16;;;;;;;6.63;3.57;;;;;;;-0.41;100.00;96547.56;5105616;28;20191;-79
2023/01/18 04:26:44;;;;;;;5.60;3.63;;;;;;;-0.40;100.00;96554.44;5108179;28;20194;-79
2023/01/18 04:29:12;;;;;;;5.53;3.50;;;;;;;-0.43;100.00;96560.66;5070498;28;20196;-79
2023/01/18 04:31:41;;;;;;;9.13;3.40;;;;;;;-0.37;100.00;96556.88;5070932;28;20214;-80
2023/01/18 04:34:10;;;;;;;8.33;3.50;;;;;;;-0.27;100.00;96567.53;5067191;28;20188;-79
2023/01/18 04:36:39;;;;;;;5.50;3.20;;;;;;;-0.33;100.00;96568.72;5065682;28;20201;-79
2023/01/18 04:39:12;;;;;;;6.53;3.33;;;;;;;-0.31;100.00;96572.06;5069525;28;20269;-79
2023/01/18 04:41:41;;;;;;;7.17;3.47;;;;;;;-0.28;100.00;96577.09;5066477;28;20204;-79
2023/01/18 04:44:10;;;;;;;6.47;3.50;;;;;;;-0.16;100.00;96575.50;5065052;28;20573;-79
2023/01/18 04:46:38;;;;;;;7.53;3.37;;;;;;;-0.18;100.00;96574.75;5068985;28;20187;-79
2023/01/18 04:49:10;;;;;;;6.73;3.60;;;;;;;-0.27;100.00;96576.16;5111181;28;20534;-79
2023/01/18 04:51:40;;;;;;;5.67;3.30;;;;;;;-0.17;100.00;96579.84;5112669;28;20312;-79
2023/01/18 04:54:09;;;;;;;6.13;3.10;;;;;;;-0.30;100.00;96581.53;5109437;28;20187;-79
2023/01/18 04:56:38;;;;;;;5.83;3.20;;;;;;;-0.36;100.00;96582.75;5106345;28;20191;-79
2023/01/18 04:59:06;;;;;;;8.57;3.27;;;;;;;-0.23;100.00;96584.59;5064393;28;20252;-80
2023/01/18 05:01:35;;;;;;;5.00;3.77;;;;;;;-0.35;100.00;96588.78;5067199;28;20204;-79
2023/01/18 05:04:04;;;;;;;10.03;3.73;;;;;;;-0.37;100.00;96595.88;5046773;28;20204;-79
2023/01/18 05:06:32;;;;;;;8.30;3.87;;;;;;;-0.37;100.00;96601.91;5042761;28;20190;-81
2023/01/18 05:09:02;;;;;;;5.20;3.30;;;;;;;-0.39;100.00;96595.94;5048927;28;20300;-79
2023/01/18 05:11:33;;;;;;;8.43;3.97;;;;;;;-0.52;100.00;96600.22;5046930;28;20200;-79
2023/01/18 05:14:01;;;;;;;5.57;3.23;;;;;;;-0.47;100.00;96602.56;5040779;28;20197;-79
2023/01/18 05:16:30;;;;;;;7.63;3.43;;;;;;;-0.55;100.00;96618.63;5050460;28;20199;-79
2023/01/18 05:18:59;;;;;;;6.50;3.27;;;;;;;-0.48;100.00;96613.84;5086601;28;20215;-79
2023/01/18 05:21:28;;;;;;;9.87;4.07;;;;;;;-0.55;100.00;96622.97;5088160;28;20196;-80
2023/01/18 05:23:56;;;;;;;8.50;3.67;;;;;;;-0.48;100.00;96619.91;5086140;28;20191;-79
2023/01/18 05:26:30;;;;;;;8.00;3.83;;;;;;;-0.46;100.00;96615.47;5085353;28;20275;-79
2023/01/18 05:28:59;;;;;;;7.43;3.50;;;;;;;-0.43;100.00;96622.22;5053752;28;20215;-79
2023/01/18 05:31:27;;;;;;;6.30;4.17;;;;;;;-0.36;100.00;96626.13;5092613;28;20225;-79
2023/01/18 05:33:56;;;;;;;4.83;3.50;;;;;;;-0.33;100.00;96629.38;5094679;28;20249;-79
2023/01/18 05:36:25;;;;;;;5.27;3.30;;;;;;;-0.14;100.00;96623.88;5064037;28;20200;-79
2023/01/18 05:38:53;;;;;;;8.70;3.70;;;;;;;-0.19;100.00;96630.28;5102137;28;20215;-79
2023/01/18 05:41:23;;;;;;;7.10;3.27;;;;;;;-0.12;100.00;96632.41;5095569;28;20196;-81
2023/01/18 05:43:55;;;;;;;8.73;3.73;;;;;;;-0.11;100.00;96635.84;5102504;28;20195;-78
2023/01/18 05:46:23;;;;;;;6.47;3.20;;;;;;;-0.18;100.00;96635.41;5097870;28;20196;-80
2023/01/18 05:48:56;;;;;;;8.17;3.50;;;;;;;-0.13;100.00;96641.13;5096410;28;20196;-78
2023/01/18 05:51:24;;;;;;;8.13;3.80;;;;;;;-0.24;100.00;96643.56;5077211;28;20249;-80
2023/01/18 05:53:52;;;;;;;5.73;3.27;;;;;;;-0.24;100.00;96646.16;5091101;28;20666;-79
2023/01/18 05:56:21;;;;;;;6.50;3.63;;;;;;;-0.16;100.00;96656.09;5088693;28;20195;-79
2023/01/18 05:58:51;;;;;;;7.07;3.63;;;;;;;-0.23;100.00;96647.00;5095362;28;20277;-79
2023/01/18 06:01:22;;;;;;;8.20;3.50;;;;;;;0.00;100.00;96654.25;5093036;28;20196;-79
2023/01/18 06:03:51;;;;;;;8.07;3.53;;;;;;;-0.02;100.00;96666.47;5088049;28;20666;-78
2023/01/18 06:06:19;;;;;;;7.57;3.90;;;;;;;0.02;100.00;96669.75;5089163;28;20199;-79
2023/01/18 06:08:48;;;;;;;11.43;3.80;;;;;;;-0.05;100.00;96669.28;5092626;28;20199;-79
2023/01/18 06:11:16;;;;;;;7.50;3.70;;;;;;;-0.01;100.00;96679.41;5090176;28;20204;-79
2023/01/18 06:13:45;;;;;;;10.33;5.20;;;;;;;-0.09;100.00;96668.66;5095577;28;20218;-78
2023/01/18 06:16:13;;;;;;;7.53;4.60;;;;;;;-0.09;100.00;96673.03;5095405;28;20195;-78
2023/01/18 06:18:43;;;;;;;10.70;4.63;;;;;;;-0.08;100.00;96679.88;5086356;28;20212;-78
2023/01/18 06:21:12;;;;;;;11.70;4.37;;;;;;;-0.18;100.00;96681.38;5092593;28;20199;-79
2023/01/18 06:23:41;;;;;;;8.40;4.13;;;;;;;-0.03;100.00;96683.03;5088740;28;20205;-79
2023/01/18 06:26:10;;;;;;;6.43;4.27;;;;;;;-0.05;100.00;96682.28;5095429;28;20192;-79
2023/01/18 06:28:41;;;;;;;8.30;4.23;;;;;;;-0.03;100.00;96686.47;5092751;28;20200;-80
2023/01/18 06:31:10;;;;;;;9.50;4.63;;;;;;;-0.08;100.00;96695.50;5097097;27;20195;-79
2023/01/18 06:33:38;;;;;;;8.53;4.37;;;;;;;-0.16;100.00;96702.94;5094323;28;20237;-78
2023/01/18 06:36:09;;;;;;;8.47;4.37;;;;;;;-0.04;100.00;96702.16;5090374;28;20196;-79
2023/01/18 06:38:38;;;;;;;5.60;3.80;;;;;;;-0.10;100.00;96705.97;5092755;28;20713;-78
2023/01/18 06:41:08;;;;;;;6.80;4.30;;;;;;;-0.13;100.00;96705.31;5094907;28;20654;-79
2023/01/18 06:43:36;;;;;;;9.13;4.27;;;;;;;-0.14;100.00;96708.84;5093790;28;20237;-79
2023/01/18 06:46:06;;;;;;;8.50;4.50;;;;;;;-0.21;100.00;96710.16;5092617;28;20257;-79
2023/01/18 06:48:35;;;;;;;8.10;4.20;;;;;;;-0.34;100.00;96713.50;5094623;28;20196;-79
2023/01/18 06:51:04;;;;;;;7.73;3.90;;;;;;;-0.22;100.00;96716.28;5090661;28;20188;-79
2023/01/18 06:53:34;;;;;;;7.20;3.87;;;;;;;-0.22;100.00;96734.50;5093388;28;20192;-79
2023/01/18 06:56:09;;;;;;;6.93;3.77;;;;;;;-0.20;100.00;96733.47;5094717;28;20199;-79
2023/01/18 06:58:37;;;;;;;9.00;3.47;;;;;;;-0.27;100.00;96731.34;5091552;28;20251;-78
2023/01/18 07:01:06;;;;;;;7.30;4.17;;;;;;;-0.33;100.00;96732.53;5092023;28;20253;-79
2023/01/18 07:03:35;;;;;;;10.57;4.07;;;;;;;-0.23;100.00;96744.06;5092956;28;20288;-79
2023/01/18 07:06:06;;;;;;;10.13;3.87;;;;;;;-0.23;100.00;96743.22;5084414;28;20591;-79
2023/01/18 07:08:36;;;;;;;6.87;3.60;;;;;;;-0.36;100.00;96753.53;5093239;28;20635;-79
2023/01/18 07:11:06;;;;;;;6.40;3.80;;;;;;;-0.44;100.00;96753.97;5091653;28;20199;-79
2023/01/18 07:13:35;;;;;;;6.97;3.63;;;;;;;-0.40;100.00;96762.41;5052177;28;20201;-79
2023/01/18 07:16:03;;;;;;;7.93;4.67;;;;;;;-0.33;100.00;96759.38;5048202;28;20197;-80
2023/01/18 07:18:32;;;;;;;9.60;4.27;;;;;;;-0.42;100.00;96772.91;5047647;28;20672;-79
2023/01/18 07:21:02;;;;;;;6.80;4.07;;;;;;;-0.26;100.00;96772.03;5046982;28;20193;-80
2023/01/18 07:23:30;;;;;;;8.30;4.07;;;;;;;-0.38;100.00;96774.41;5053198;28;20235;-80
2023/01/18 07:26:04;;;;;;;9.17;4.37;;;;;;;-0.24;100.00;96776.19;5049761;28;20658;-80
2023/01/18 07:28:36;;;;;;;8.17;3.97;;;;;;;-0.18;100.00;96788.84;5049570;28;20754;-80
2023/01/18 07:31:07;;;;;;;6.90;4.37;;;;;;;-0.13;100.00;96792.00;5046401;28;20235;-80
2023/01/18 07:33:35;;;;;;;10.90;4.00;;;;;;;-0.14;100.00;96803.34;5009223;28;20195;-80
2023/01/18 07:36:06;;;;;;;16.10;4.13;;;;;;;-0.20;100.00;96808.88;5013105;28;20194;-80
2023/01/18 07:38:35;;;;;;;8.67;4.60;;;;;;;-0.12;100.00;96806.66;4974357;28;20191;-80
2023/01/18 07:41:08;;;;;;;11.83;4.67;;;;;;;-0.07;100.00;96817.66;4989914;28;20220;-80
2023/01/18 07:43:40;;;;;;;11.67;4.87;;;;;;;-0.07;100.00;96817.66;4943969;28;20282;-79
2023/01/18 07:46:15;;;;;;;9.70;5.03;;;;;;;-0.10;100.00;96817.81;4991792;28;20253;-80
2023/01/18 07:48:49;;;;;;;10.63;5.60;;;;;;;0.01;100.00;96821.56;4922427;29;20192;-80
2023/01/18 07:51:18;;;;;;;10.23;5.00;;;;;;;-0.01;100.00;96830.28;4949567;28;20275;-80
2023/01/18 07:53:47;;;;;;;9.53;5.57;;;;;;;0.16;100.00;96841.47;4949652;28;20672;-80
2023/01/18 07:56:18;;;;;;;11.70;6.23;;;;;;;0.24;100.00;96842.69;4948302;28;20671;-80
2023/01/18 07:58:47;;;;;;;9.63;5.63;;;;;;;0.14;100.00;96838.13;4980485;28;20232;-79
2023/01/18 08:01:17;;;;;;;11.73;5.90;;;;;;;0.15;100.00;96845.00;4989995;28;20214;-80
2023/01/18 08:03:47;;;;;;;9.50;5.90;;;;;;;0.25;100.00;96841.75;5045867;28;20223;-79
2023/01/18 08:06:19;;;;;;;12.67;5.40;;;;;;;0.21;100.00;96844.63;5073751;28;20237;-80
2023/01/18 08:08:47;;;;;;;10.73;5.70;;;;;;;0.16;100.00;96847.50;5092124;28;20198;-80
2023/01/18 08:11:18;;;;;;;8.40;5.57;;;;;;;0.21;100.00;96852.44;5093108;28;20226;-80
2023/01/18 08:13:48;;;;;;;10.67;5.33;;;;;;;0.19;100.00;96860.34;5095994;27;20228;-80
2023/01/18 08:16:17;;;;;;;8.83;5.57;;;;;;;0.15;100.00;96860.59;5093428;28;20270;-80
2023/01/18 08:18:48;;;;;;;9.47;5.83;;;;;;;0.18;100.00;96866.44;5093089;28;20203;-79
2023/01/18 08:21:18;;;;;;;9.00;5.77;;;;;;;0.22;100.00;96873.16;5085305;28;20207;-79
2023/01/18 08:23:46;;;;;;;11.40;6.13;;;;;;;0.25;100.00;96870.38;5092222;28;20188;-79
2023/01/18 08:26:15;;;;;;;12.60;5.97;;;;;;;0.28;100.00;96874.56;5088697;28;20195;-80
2023/01/18 08:28:45;;;;;;;12.77;6.23;;;;;;;0.29;100.00;96873.66;5090681;28;20184;-80
2023/01/18 08:31:19;;;;;;;12.73;6.63;;;;;;;0.38;100.00;96878.28;5089552;28;20198;-79
2023/01/18 08:33:49;;;;;;;12.57;6.50;;;;;;;0.50;100.00;96887.97;5093331;28;20194;-80
2023/01/18 08:36:21;;;;;;;12.90;6.50;;;;;;;0.64;100.00;96886.28;5090227;28;20196;-80
2023/01/18 08:38:51;;;;;;;14.80;7.37;;;;;;;0.68;100.00;96891.25;5093471;28;20270;-79
2023/01/18 08:41:20;;;;;;;12.57;6.93;;;;;;;0.72;100.00;96907.50;5099076;27;20253;-78
2023/01/18 08:43:51;;;;;;;14.63;6.73;;;;;;;0.61;100.00;96902.13;5088572;28;20196;-79
2023/01/18 08:46:19;;;;;;;11.50;6.30;;;;;;;0.59;100.00;96910.03;5091760;28;20267;-80
2023/01/18 08:48:50;;;;;;;11.70;6.57;;;;;;;0.48;100.00;96915.00;5088957;28;20203;-80
2023/01/18 08:51:22;;;;;;;10.33;6.23;;;;;;;0.53;100.00;96918.19;5088279;28;20199;-80
2023/01/18 08:53:53;;;;;;;16.20;6.77;;;;;;;0.46;100.00;96920.31;5089212;28;20247;-80
2023/01/18 08:56:21;;;;;;;12.40;6.67;;;;;;;0.59;100.00;96917.00;5089101;28;20266;-80
2023/01/18 08:58:51;;;;;;;12.00;6.60;;;;;;;0.65;100.00;96925.25;5091654;28;20283;-80
2023/01/18 09:01:21;;;;;;;12.50;6.87;;;;;;;0.80;100.00;96939.97;5092143;28;20231;-79
2023/01/18 09:03:54;;;;;;;13.37;7.17;;;;;;;0.76;100.00;96942.84;5092593;28;20188;-79
2023/01/18 09:06:23;;;;;;;11.13;6.20;;;;;;;0.61;100.00;96949.81;5090974;28;20222;-79
2023/01/18 09:08:53;;;;;;;10.77;6.23;;;;;;;0.71;100.00;96947.50;5091437;28;20198;-79
2023/01/18 09:11:22;;;;;;;9.57;6.13;;;;;;;0.59;100.00;96948.25;5086723;28;20198;-80
2023/01/18 09:13:55;;;;;;;11.90;5.87;;;;;;;0.69;100.00;96955.41;5089619;28;20203;-79
2023/01/18 09:16:29;;;;;;;8.97;5.23;;;;;;;0.81;100.00;96952.06;5094958;28;20217;-79
2023/01/18 09:19:00;;;;;;;7.97;5.20;;;;;;;0.78;100.00;96961.84;5092472;28;20202;-81
2023/01/18 09:21:28;;;;;;;10.13;5.13;;;;;;;0.88;100.00;96964.75;5087758;28;20215;-81
2023/01/18 09:23:58;;;;;;;10.63;5.17;;;;;;;0.98;100.00;96976.28;5086389;28;20313;-81
2023/01/18 09:26:29;;;;;;;10.43;5.17;;;;;;;1.02;100.00;96968.16;5085807;28;20195;-80
2023/01/18 09:28:59;;;;;;;11.90;6.00;;;;;;;0.92;100.00;96966.22;5092733;28;20550;-80
2023/01/18 09:31:29;;;;;;;10.47;5.67;;;;;;;1.12;100.00;96971.03;5094953;28;20245;-80
2023/01/18 09:33:59;;;;;;;10.07;5.60;;;;;;;1.20;100.00;96979.25;5019247;28;20197;-80
2023/01/18 09:36:46;;;;;;;10.90;5.47;;;;;;;1.22;100.00;96993.00;5050049;28;20196;-80
2023/01/18 09:39:14;;;;;;;10.77;5.80;;;;;;;1.18;100.00;96993.31;5048772;28;20205;-81
2023/01/18 09:41:45;;;;;;;12.90;6.20;;;;;;;1.26;100.00;96989.31;5011896;28;20216;-80
2023/01/18 09:44:22;;;;;;;10.93;5.43;;;;;;;1.30;100.00;97000.38;5045987;28;20198;-81
2023/01/18 09:46:53;;;;;;;11.40;6.20;;;;;;;1.35;100.00;96999.16;5048186;28;20200;-80
2023/01/18 09:49:29;;;;;;;12.60;5.77;;;;;;;1.27;100.00;97008.38;5046661;28;20193;-81
2023/01/18 09:52:08;;;;;;;12.40;5.67;;;;;;;1.27;100.00;97006.59;5062988;28;20236;-80
2023/01/18 09:54:42;;;;;;;9.43;5.50;;;;;;;1.34;100.00;97018.31;5091023;28;20195;-80
2023/01/18 09:57:20;;;;;;;10.10;5.20;;;;;;;1.33;100.00;97014.03;5088119;28;20203;-80
2023/01/18 09:59:55;;;;;;;7.90;5.20;;;;;;;1.37;100.00;97012.09;5088329;28;20249;-81
2023/01/18 10:02:29;;;;;;;7.30;4.80;;;;;;;1.40;100.00;97009.28;5090791;28;20219;-80
2023/01/18 10:05:02;;;;;;;10.03;4.83;;;;;;;1.40;100.00;97015.34;5089618;28;20188;-81
2023/01/18 10:07:34;;;;;;;10.07;4.90;;;;;;;1.45;100.00;97015.06;5084064;28;20340;-79
2023/01/18 10:10:05;;;;;;;10.53;5.63;;;;;;;1.49;100.00;97019.16;5090690;28;20340;-80
2023/01/18 10:12:39;;;;;;;10.10;5.60;;;;;;;1.61;100.00;97023.59;5092152;28;20191;-80
2023/01/18 10:15:19;;;;;;;9.90;5.40;;;;;;;1.73;100.00;97025.44;5087774;28;20286;-80
2023/01/18 10:17:49;;;;;;;14.20;6.13;;;;;;;1.78;100.00;97030.38;5093027;28;20221;-80
2023/01/18 10:20:24;;;;;;;9.50;5.00;;;;;;;1.78;100.00;97027.78;5095900;28;20188;-80
2023/01/18 10:23:00;;;;;;;11.10;5.57;;;;;;;1.83;100.00;97030.91;5094514;28;20191;-80
2023/01/18 10:25:32;;;;;;;12.93;5.93;;;;;;;1.94;100.00;97032.88;5089599;28;20203;-80
2023/01/18 10:28:25;;;;;;;9.57;5.83;;;;;;;1.96;100.00;97042.25;5095998;28;20195;-80
2023/01/18 10:31:02;;;;;;;12.60;5.67;;;;;;;2.01;100.00;97026.28;5093738;28;20223;-80
2023/01/18 10:33:37;;;;;;;9.67;5.67;;;;;;;1.97;100.00;97028.28;5095575;28;20191;-80
2023/01/18 10:36:16;;;;;;;12.27;5.73;;;;;;;2.09;100.00;97031.88;5093544;28;20222;-79
2023/01/18 10:38:47;;;;;;;10.23;5.63;;;;;;;2.15;100.00;97031.47;5096511;27;20248;-81
2023/01/18 10:41:20;;;;;;;14.07;6.13;;;;;;;2.16;100.00;97033.16;5090652;28;20218;-79
2023/01/18 10:43:49;;;;;;;10.70;6.27;;;;;;;2.22;100.00;97037.13;5068702;28;20200;-80
2023/01/18 10:46:19;;;;;;;10.33;6.17;;;;;;;2.20;100.00;97042.47;5072287;28;20200;-79
2023/01/18 10:48:49;;;;;;;11.33;5.97;;;;;;;2.30;100.00;97035.69;5068513;28;20615;-80
2023/01/18 10:51:30;;;;;;;10.33;5.43;;;;;;;2.39;100.00;97051.72;5067921;28;20197;-80
2023/01/18 10:53:59;;;;;;;11.17;5.83;;;;;;;2.55;100.00;97052.41;5069128;28;20192;-80
2023/01/18 10:56:28;;;;;;;13.57;5.80;;;;;;;2.61;100.00;97045.94;5087036;28;20191;-81
2023/01/18 10:58:58;;;;;;;12.07;5.97;;;;;;;2.68;100.00;97044.56;5084793;28;20686;-80
2023/01/18 11:01:33;;;;;;;7.07;5.13;;;;;;;2.83;100.00;97039.19;5085080;28;20258;-79
2023/01/18 11:04:08;;;;;;;9.53;5.47;;;;;;;2.71;100.00;97060.91;5092999;28;20266;-80
2023/01/18 11:06:46;;;;;;;10.13;5.57;;;;;;;2.72;100.00;97059.13;5090498;28;20332;-79
2023/01/18 11:09:40;;;;;;;10.97;5.40;;;;;;;2.76;100.00;97064.03;5093453;28;20199;-80
2023/01/18 11:12:36;;;;;;;13.57;6.30;;;;;;;2.82;100.00;97070.66;5088813;28;20324;-80
2023/01/18 11:15:23;;;;;;;10.87;6.07;;;;;;;2.84;100.00;97066.97;5092953;28;20233;-80
2023/01/18 11:18:11;;;;;;;11.03;5.73;;;;;;;2.88;100.00;97072.84;5095392;28;20245;-79
2023/01/18 11:20:47;;;;;;;9.43;5.67;;;;;;;2.94;100.00;97066.38;5101599;28;20191;-80
2023/01/18 11:23:19;;;;;;;11.50;5.97;;;;;;;2.96;100.00;97077.56;5102650;28;20187;-80
2023/01/18 11:25:56;;;;;;;12.10;6.17;;;;;;;2.96;100.00;97070.53;5099997;28;20198;-79
2023/01/18 11:28:36;;;;;;;12.53;5.57;;;;;;;3.07;100.00;97075.88;5095042;28;20195;-80
2023/01/18 11:31:12;;;;;;;11.93;5.23;;;;;;;3.15;100.00;97073.59;5087677;28;20199;-80
2023/01/18 11:33:51;;;;;;;9.57;5.70;;;;;;;3.37;100.00;97072.13;5088714;28;20340;-81
2023/01/18 11:36:20;;;;;;;10.70;5.80;;;;;;;3.40;100.00;97075.41;5095278;27;20237;-80
2023/01/18 11:38:48;;;;;;;11.43;5.17;;;;;;;3.55;100.00;97065.63;5093288;28;20222;-80
2023/01/18 11:41:22;;;;;;;13.37;6.10;;;;;;;3.77;100.00;97067.59;5089632;28;20276;-79
2023/01/18 11:44:04;;;;;;;9.37;5.17;;;;;;;3.88;100.00;97074.69;5090026;28;20246;-80
2023/01/18 11:46:42;;;;;;;11.97;4.70;;;;;;;3.98;100.00;97073.94;5094834;28;20211;-81
2023/01/18 11:49:31;;;;;;;9.47;4.80;;;;;;;4.30;100.00;97073.41;5090548;28;20662;-79
2023/01/18 11:52:02;;;;;;;9.27;4.40;;;;;;;4.46;100.00;97073.97;5094477;28;20196;-79
2023/01/18 11:54:37;;;;;;;8.43;4.40;;;;;;;4.57;100.00;97067.94;5092876;28;20198;-80
2023/01/18 11:57:09;;;;;;;11.80;4.23;;;;;;;4.62;100.00;97072.84;5089874;28;20200;-80
2023/01/18 11:59:40;;;;;;;9.97;4.67;;;;;;;4.87;100.00;97072.69;5092054;28;20280;-80
2023/01/18 12:02:54;;;;;;;8.50;4.73;;;;;;;4.65;100.00;97073.47;5092555;28;20247;-80
2023/01/18 12:05:51;;;;;;;7.47;4.70;;;;;;;4.91;100.00;97076.75;5090914;28;20206;-79
2023/01/18 12:08:53;;;;;;;11.80;4.83;;;;;;;4.99;100.00;97076.19;5092568;28;20217;-79
2023/01/18 12:11:38;;;;;;;9.60;5.13;;;;;;;4.93;100.00;97082.75;5088681;28;20199;-79
2023/01/18 12:14:19;;;;;;;9.77;4.17;;;;;;;4.85;100.00;97085.09;5089732;28;20195;-79
2023/01/18 12:17:08;;;;;;;10.37;4.57;;;;;;;5.44;100.00;97087.63;5094468;28;20195;-79
2023/01/18 12:20:07;;;;;;;10.20;4.93;;;;;;;5.50;100.00;97089.78;5090608;28;20200;-80
2023/01/18 12:23:12;;;;;;;8.00;4.93;;;;;;;5.35;100.00;97083.06;5072283;28;20226;-80